Aabenraa, Denmark
Current Conditions -  °F | °C
As of 5:50 AM on Thursday 23 Oct 2014 (Local Time) from EKSP Reporting Station
Few Clouds Few Clouds  
Wind Chill: 46°   Ceiling: Unl
Heat Index: 46°   Visibility: 6mi
Dew Point: 45°   Wind: 1mph
Humidity: 93%   Direction: 240°WSW
Pressure: 30.06"   Gusts: NA
Location:  55.04°N, 9.42°E
Report Text: EKSP 230350Z 24001KT 9999 FEW038 08/07 Q1018
Loading
Personal Weather Stations






























Interactive Weather Map
Tropical Storm Tracking
New forecast layout! Learn more

10-Day Weather Forecast

Advertisements
Track Severe Weather on mobile